SAZ61 HESH-OMDB
Flight info
| Callsign | SAZ61 |
|---|---|
| Flight time | 2h 36m |
| Altitude | 37000 |
| Route | NOVPA DCT TBK DCT SOBAS DCT HIL DCT GAS DCT MGA DCT HSA DCT DOH DCT SIR DCT VUTEB |
| Aircraft | CL60/M-SBDE1E2E3FGHIJ1J4J5J7M3RWXYZ/LB1V1D1 |
Departure
| Time | 2026-04-25 15:11 |
|---|---|
| Airport | Sharm El Sheikh International Airport (HESH) |
Arrival
| Time | 2026-04-25 17:48 |
|---|---|
| Airport | Dubai International Airport (OMDB) |
| Time | Latitude | Longitude | Altitude | Speed | Heading |
|---|---|---|---|---|---|
| 2026-04-25 14:31 | 27.98126 | 34.39156 | 184 ft | 0 kts | 313° |
| 2026-04-25 14:55 | 27.98126 | 34.39157 | 184 ft | 0 kts | 313° |
| 2026-04-25 14:56 | 27.98126 | 34.39156 | 184 ft | 0 kts | 313° |
| 2026-04-25 14:57 | 27.98120 | 34.39164 | 184 ft | 2 kts | 313° |
| 2026-04-25 14:57 | 27.98109 | 34.39177 | 183 ft | 2 kts | 313° |
| 2026-04-25 14:57 | 27.98099 | 34.39189 | 183 ft | 2 kts | 313° |
| 2026-04-25 14:57 | 27.98089 | 34.39201 | 182 ft | 2 kts | 313° |
| 2026-04-25 14:58 | 27.98082 | 34.39210 | 181 ft | 1 kts | 313° |
| 2026-04-25 14:58 | 27.98076 | 34.39223 | 181 ft | 2 kts | 276° |
| 2026-04-25 14:58 | 27.98079 | 34.39240 | 180 ft | 2 kts | 239° |
| 2026-04-25 14:58 | 27.98084 | 34.39247 | 180 ft | 0 kts | 222° |
| 2026-04-25 15:04 | 27.98064 | 34.39226 | 180 ft | 6 kts | 223° |
| 2026-04-25 15:04 | 27.98028 | 34.39188 | 181 ft | 7 kts | 223° |
| 2026-04-25 15:04 | 27.97987 | 34.39142 | 182 ft | 9 kts | 222° |
| 2026-04-25 15:04 | 27.97937 | 34.39091 | 183 ft | 10 kts | 221° |
| 2026-04-25 15:05 | 27.97881 | 34.39034 | 184 ft | 11 kts | 221° |
| 2026-04-25 15:05 | 27.97817 | 34.38969 | 184 ft | 13 kts | 222° |
| 2026-04-25 15:05 | 27.97743 | 34.38892 | 183 ft | 9 kts | 223° |
| 2026-04-25 15:06 | 27.97611 | 34.38755 | 181 ft | 16 kts | 223° |
| 2026-04-25 15:06 | 27.97521 | 34.38661 | 180 ft | 19 kts | 222° |
| 2026-04-25 15:06 | 27.97485 | 34.38625 | 180 ft | 4 kts | 222° |
| 2026-04-25 15:06 | 27.97458 | 34.38593 | 179 ft | 7 kts | 229° |
| 2026-04-25 15:07 | 27.97409 | 34.38544 | 179 ft | 13 kts | 221° |
| 2026-04-25 15:07 | 27.97325 | 34.38457 | 180 ft | 18 kts | 222° |
| 2026-04-25 15:07 | 27.97248 | 34.38378 | 181 ft | 13 kts | 223° |
| 2026-04-25 15:07 | 27.97172 | 34.38299 | 181 ft | 16 kts | 223° |
| 2026-04-25 15:08 | 27.97104 | 34.38227 | 180 ft | 11 kts | 223° |
| 2026-04-25 15:08 | 27.97043 | 34.38163 | 178 ft | 13 kts | 223° |
| 2026-04-25 15:08 | 27.96964 | 34.38141 | 173 ft | 14 kts | 135° |
| 2026-04-25 15:08 | 27.96874 | 34.38251 | 166 ft | 21 kts | 132° |
| 2026-04-25 15:09 | 27.96777 | 34.38369 | 161 ft | 19 kts | 132° |
| 2026-04-25 15:09 | 27.96686 | 34.38481 | 150 ft | 15 kts | 133° |
| 2026-04-25 15:09 | 27.96655 | 34.38518 | 147 ft | 0 kts | 133° |
| 2026-04-25 15:10 | 27.96640 | 34.38536 | 145 ft | 10 kts | 133° |
| 2026-04-25 15:10 | 27.96745 | 34.38784 | 147 ft | 70 kts | 43° |
| 2026-04-25 15:11 | 27.97342 | 34.39402 | 157 ft | 154 kts | 44° |
| 2026-04-25 15:11 | 27.98240 | 34.40348 | 390 ft | 196 kts | 45° |
| 2026-04-25 15:11 | 27.99339 | 34.41459 | 923 ft | 230 kts | 37° |
| 2026-04-25 15:12 | 28.02406 | 34.43132 | 2819 ft | 260 kts | 20° |
| 2026-04-25 15:12 | 28.04052 | 34.43921 | 3885 ft | 264 kts | 20° |
| 2026-04-25 15:12 | 28.05741 | 34.44736 | 4983 ft | 267 kts | 20° |
| 2026-04-25 15:12 | 28.06867 | 34.45283 | 5717 ft | 269 kts | 21° |
| 2026-04-25 15:13 | 28.09146 | 34.46408 | 7210 ft | 272 kts | 21° |
| 2026-04-25 15:13 | 28.12566 | 34.48130 | 9456 ft | 273 kts | 14° |
| 2026-04-25 15:13 | 28.14417 | 34.48401 | 10548 ft | 270 kts | 358° |
| 2026-04-25 15:14 | 28.16279 | 34.48418 | 11573 ft | 272 kts | 358° |
| 2026-04-25 15:14 | 28.18144 | 34.48444 | 12665 ft | 273 kts | 358° |
| 2026-04-25 15:14 | 28.20054 | 34.48472 | 13687 ft | 275 kts | 358° |
| 2026-04-25 15:14 | 28.21937 | 34.48500 | 14647 ft | 276 kts | 357° |
| 2026-04-25 15:15 | 28.23854 | 34.48698 | 15613 ft | 279 kts | 7° |
| 2026-04-25 15:15 | 28.25740 | 34.49132 | 16545 ft | 279 kts | 8° |
| 2026-04-25 15:15 | 28.27622 | 34.49570 | 17451 ft | 279 kts | 8° |
| 2026-04-25 15:15 | 28.29523 | 34.50010 | 18338 ft | 279 kts | 8° |
| 2026-04-25 15:16 | 28.31411 | 34.50447 | 19181 ft | 278 kts | 8° |
| 2026-04-25 15:16 | 28.33288 | 34.50882 | 19991 ft | 278 kts | 7° |
| 2026-04-25 15:16 | 28.37073 | 34.51757 | 21520 ft | 280 kts | 6° |
| 2026-04-25 15:17 | 28.41071 | 34.52672 | 21871 ft | 306 kts | 6° |
| 2026-04-25 15:17 | 28.43165 | 34.53159 | 21845 ft | 301 kts | 6° |
| 2026-04-25 15:17 | 28.45193 | 34.53632 | 21866 ft | 296 kts | 6° |
| 2026-04-25 15:18 | 28.47229 | 34.54103 | 21877 ft | 296 kts | 6° |
| 2026-04-25 15:18 | 28.51268 | 34.55038 | 21861 ft | 296 kts | 6° |
| 2026-04-25 15:18 | 28.53289 | 34.55507 | 21877 ft | 296 kts | 6° |
| 2026-04-25 15:19 | 28.55298 | 34.55972 | 21894 ft | 296 kts | 6° |
| 2026-04-25 15:19 | 28.56666 | 34.56289 | 21891 ft | 296 kts | 6° |
| 2026-04-25 15:19 | 28.59338 | 34.56908 | 21909 ft | 296 kts | 6° |
| 2026-04-25 15:19 | 28.61369 | 34.57379 | 21913 ft | 296 kts | 6° |
| 2026-04-25 15:20 | 28.63396 | 34.57848 | 21922 ft | 296 kts | 6° |
| 2026-04-25 15:20 | 28.65404 | 34.58314 | 21939 ft | 296 kts | 6° |
| 2026-04-25 15:20 | 28.67457 | 34.58787 | 21967 ft | 310 kts | 6° |
| 2026-04-25 15:20 | 28.69662 | 34.59291 | 21996 ft | 337 kts | 7° |
| 2026-04-25 15:21 | 28.72046 | 34.59838 | 22164 ft | 359 kts | 7° |
| 2026-04-25 15:21 | 28.74553 | 34.60418 | 22686 ft | 368 kts | 7° |
| 2026-04-25 15:21 | 28.77052 | 34.60999 | 23350 ft | 372 kts | 7° |
| 2026-04-25 15:21 | 28.79617 | 34.61596 | 24067 ft | 376 kts | 7° |
| 2026-04-25 15:22 | 28.82178 | 34.62192 | 24713 ft | 380 kts | 6° |
| 2026-04-25 15:22 | 28.84795 | 34.62801 | 25335 ft | 384 kts | 6° |
| 2026-04-25 15:22 | 28.87421 | 34.63412 | 25951 ft | 387 kts | 6° |
| 2026-04-25 15:22 | 28.90057 | 34.64028 | 26501 ft | 391 kts | 7° |
| 2026-04-25 15:23 | 28.92660 | 34.64986 | 27083 ft | 401 kts | 20° |
| 2026-04-25 15:23 | 28.95085 | 34.66665 | 27599 ft | 411 kts | 36° |
| 2026-04-25 15:23 | 28.97094 | 34.68991 | 28098 ft | 419 kts | 51° |
| 2026-04-25 15:23 | 28.98604 | 34.71923 | 28213 ft | 436 kts | 67° |
| 2026-04-25 15:24 | 28.99358 | 34.75286 | 28248 ft | 449 kts | 86° |
| 2026-04-25 15:24 | 28.99165 | 34.78870 | 28325 ft | 456 kts | 107° |
| 2026-04-25 15:24 | 28.98137 | 34.82296 | 28517 ft | 461 kts | 114° |
| 2026-04-25 15:24 | 28.97367 | 34.84560 | 28691 ft | 464 kts | 114° |
| 2026-04-25 15:25 | 28.95826 | 34.89131 | 29301 ft | 466 kts | 114° |
| 2026-04-25 15:25 | 28.94661 | 34.92592 | 29817 ft | 465 kts | 114° |
| 2026-04-25 15:25 | 28.93509 | 34.96006 | 30228 ft | 465 kts | 115° |
| 2026-04-25 15:25 | 28.92336 | 34.99477 | 30550 ft | 468 kts | 115° |
| 2026-04-25 15:26 | 28.91167 | 35.02931 | 30897 ft | 471 kts | 115° |
| 2026-04-25 15:26 | 28.89989 | 35.06413 | 31208 ft | 473 kts | 115° |
| 2026-04-25 15:26 | 28.88808 | 35.09896 | 31559 ft | 475 kts | 115° |
| 2026-04-25 15:26 | 28.87626 | 35.13383 | 31881 ft | 477 kts | 116° |
| 2026-04-25 15:27 | 28.86416 | 35.16945 | 32097 ft | 481 kts | 116° |
| 2026-04-25 15:27 | 28.85205 | 35.20508 | 32454 ft | 483 kts | 116° |
| 2026-04-25 15:27 | 28.82778 | 35.27636 | 33078 ft | 485 kts | 116° |
| 2026-04-25 15:28 | 28.81564 | 35.31198 | 33367 ft | 486 kts | 116° |
| 2026-04-25 15:28 | 28.80341 | 35.34782 | 33557 ft | 490 kts | 116° |
| 2026-04-25 15:28 | 28.79101 | 35.38408 | 33748 ft | 495 kts | 117° |
| 2026-04-25 15:28 | 28.77844 | 35.42084 | 34135 ft | 495 kts | 116° |
| 2026-04-25 15:29 | 28.76602 | 35.45716 | 34545 ft | 493 kts | 116° |
| 2026-04-25 15:29 | 28.75368 | 35.49319 | 34847 ft | 493 kts | 117° |
| 2026-04-25 15:29 | 28.74125 | 35.52943 | 35131 ft | 495 kts | 117° |
| 2026-04-25 15:29 | 28.72860 | 35.56627 | 35422 ft | 496 kts | 116° |
| 2026-04-25 15:30 | 28.71618 | 35.60238 | 35633 ft | 498 kts | 117° |
| 2026-04-25 15:30 | 28.70344 | 35.63943 | 35923 ft | 498 kts | 117° |
| 2026-04-25 15:30 | 28.69085 | 35.67598 | 36148 ft | 499 kts | 117° |
| 2026-04-25 15:30 | 28.67819 | 35.71272 | 36365 ft | 500 kts | 117° |
| 2026-04-25 15:31 | 28.66544 | 35.74964 | 36534 ft | 501 kts | 118° |
| 2026-04-25 15:31 | 28.65283 | 35.78615 | 36707 ft | 503 kts | 117° |
| 2026-04-25 15:31 | 28.63998 | 35.82330 | 36857 ft | 505 kts | 117° |
| 2026-04-25 15:31 | 28.62725 | 35.86006 | 37057 ft | 505 kts | 118° |
| 2026-04-25 15:32 | 28.61425 | 35.89754 | 37005 ft | 511 kts | 118° |
| 2026-04-25 15:32 | 28.58829 | 35.97235 | 37013 ft | 510 kts | 117° |
| 2026-04-25 15:33 | 28.54931 | 36.08445 | 37016 ft | 505 kts | 118° |
| 2026-04-25 15:33 | 28.52350 | 36.15843 | 37030 ft | 506 kts | 117° |
| 2026-04-25 15:34 | 28.49760 | 36.23253 | 37013 ft | 507 kts | 117° |
| 2026-04-25 15:34 | 28.47607 | 36.29397 | 36899 ft | 509 kts | 117° |
| 2026-04-25 15:35 | 28.43263 | 36.41771 | 36915 ft | 506 kts | 117° |
| 2026-04-25 15:36 | 28.39358 | 36.52853 | 36896 ft | 507 kts | 118° |
| 2026-04-25 15:36 | 28.36782 | 36.60390 | 36912 ft | 522 kts | 112° |
| 2026-04-25 15:37 | 28.35213 | 36.68565 | 36903 ft | 538 kts | 104° |
| 2026-04-25 15:37 | 28.33834 | 36.76893 | 36909 ft | 545 kts | 104° |
| 2026-04-25 15:38 | 28.32415 | 36.85418 | 36905 ft | 554 kts | 104° |
| 2026-04-25 15:38 | 28.30979 | 36.94013 | 37036 ft | 557 kts | 104° |
| 2026-04-25 15:39 | 28.29536 | 37.02615 | 37027 ft | 563 kts | 104° |
| 2026-04-25 15:39 | 28.28072 | 37.11316 | 37042 ft | 563 kts | 105° |
| 2026-04-25 15:40 | 28.26845 | 37.18573 | 37070 ft | 564 kts | 104° |
| 2026-04-25 15:40 | 28.25115 | 37.28766 | 37038 ft | 565 kts | 104° |
| 2026-04-25 15:41 | 28.23636 | 37.37438 | 37038 ft | 564 kts | 104° |
| 2026-04-25 15:41 | 28.22139 | 37.46186 | 37028 ft | 564 kts | 104° |
| 2026-04-25 15:42 | 28.20645 | 37.54874 | 37025 ft | 564 kts | 104° |
| 2026-04-25 15:42 | 28.19146 | 37.63559 | 37042 ft | 565 kts | 104° |
| 2026-04-25 15:43 | 28.17637 | 37.72268 | 37028 ft | 563 kts | 104° |
| 2026-04-25 15:43 | 28.16126 | 37.80950 | 37036 ft | 564 kts | 104° |
| 2026-04-25 15:44 | 28.14610 | 37.89631 | 37032 ft | 565 kts | 105° |
| 2026-04-25 15:44 | 28.13085 | 37.98330 | 37029 ft | 565 kts | 104° |
| 2026-04-25 15:45 | 28.11552 | 38.07040 | 37022 ft | 564 kts | 105° |
| 2026-04-25 15:45 | 28.10275 | 38.14268 | 37029 ft | 563 kts | 104° |
| 2026-04-25 15:46 | 28.08486 | 38.24358 | 37013 ft | 563 kts | 104° |
| 2026-04-25 15:46 | 28.06941 | 38.33035 | 37010 ft | 562 kts | 104° |
| 2026-04-25 15:47 | 28.05395 | 38.41683 | 37010 ft | 562 kts | 104° |
| 2026-04-25 15:47 | 28.03853 | 38.50280 | 37005 ft | 562 kts | 104° |
| 2026-04-25 15:48 | 28.02296 | 38.58927 | 37012 ft | 562 kts | 104° |
| 2026-04-25 15:48 | 28.00732 | 38.67576 | 37016 ft | 561 kts | 105° |
| 2026-04-25 15:49 | 27.99168 | 38.76197 | 37011 ft | 559 kts | 105° |
| 2026-04-25 15:49 | 27.97607 | 38.84771 | 37006 ft | 559 kts | 105° |
| 2026-04-25 15:50 | 27.96040 | 38.93340 | 37008 ft | 559 kts | 104° |
| 2026-04-25 15:50 | 27.94467 | 39.01914 | 37010 ft | 559 kts | 105° |
| 2026-04-25 15:51 | 27.93158 | 39.09021 | 37012 ft | 559 kts | 105° |
| 2026-04-25 15:51 | 27.91295 | 39.19059 | 37021 ft | 559 kts | 105° |
| 2026-04-25 15:52 | 27.89698 | 39.27628 | 37021 ft | 558 kts | 105° |
| 2026-04-25 15:52 | 27.88094 | 39.36204 | 37029 ft | 558 kts | 105° |
| 2026-04-25 15:53 | 27.86490 | 39.44748 | 37036 ft | 557 kts | 105° |
| 2026-04-25 15:53 | 27.84889 | 39.53249 | 37029 ft | 556 kts | 105° |
| 2026-04-25 15:54 | 27.83273 | 39.61794 | 37037 ft | 556 kts | 105° |
| 2026-04-25 15:54 | 27.81660 | 39.70296 | 37034 ft | 555 kts | 105° |
| 2026-04-25 15:55 | 27.80046 | 39.78775 | 37039 ft | 554 kts | 106° |
| 2026-04-25 15:55 | 27.78429 | 39.87239 | 37039 ft | 554 kts | 106° |
| 2026-04-25 15:56 | 27.76797 | 39.95748 | 37034 ft | 555 kts | 105° |
| 2026-04-25 15:56 | 27.75161 | 40.04251 | 37042 ft | 556 kts | 105° |
| 2026-04-25 15:57 | 27.73523 | 40.12737 | 37038 ft | 555 kts | 105° |
| 2026-04-25 15:57 | 27.71884 | 40.21196 | 37030 ft | 555 kts | 105° |
| 2026-04-25 15:58 | 27.70240 | 40.29653 | 37025 ft | 555 kts | 105° |
| 2026-04-25 15:58 | 27.68587 | 40.38133 | 37035 ft | 554 kts | 106° |
| 2026-04-25 15:59 | 27.66936 | 40.46566 | 37026 ft | 554 kts | 105° |
| 2026-04-25 15:59 | 27.65274 | 40.55029 | 37019 ft | 554 kts | 105° |
| 2026-04-25 16:00 | 27.63888 | 40.62066 | 37033 ft | 554 kts | 105° |
| 2026-04-25 16:00 | 27.61932 | 40.71969 | 37033 ft | 553 kts | 105° |
| 2026-04-25 16:01 | 27.60268 | 40.80357 | 37033 ft | 553 kts | 106° |
| 2026-04-25 16:01 | 27.58586 | 40.88806 | 37039 ft | 552 kts | 105° |
| 2026-04-25 16:02 | 27.56904 | 40.97230 | 37028 ft | 552 kts | 106° |
| 2026-04-25 16:02 | 27.55229 | 41.05592 | 37029 ft | 551 kts | 106° |
| 2026-04-25 16:03 | 27.53544 | 41.13975 | 37030 ft | 550 kts | 106° |
| 2026-04-25 16:03 | 27.51844 | 41.22406 | 37061 ft | 550 kts | 105° |
| 2026-04-25 16:04 | 27.50156 | 41.30748 | 37068 ft | 550 kts | 106° |
| 2026-04-25 16:04 | 27.48462 | 41.39095 | 37066 ft | 549 kts | 106° |
| 2026-04-25 16:05 | 27.46754 | 41.47483 | 37043 ft | 548 kts | 105° |
| 2026-04-25 16:06 | 27.44194 | 41.60005 | 37008 ft | 547 kts | 106° |
| 2026-04-25 16:06 | 27.42092 | 41.68179 | 37003 ft | 542 kts | 116° |
| 2026-04-25 16:07 | 27.38676 | 41.75593 | 37003 ft | 532 kts | 127° |
| 2026-04-25 16:07 | 27.34906 | 41.82744 | 36989 ft | 533 kts | 127° |
| 2026-04-25 16:08 | 27.31143 | 41.89881 | 37011 ft | 533 kts | 127° |
| 2026-04-25 16:08 | 27.27367 | 41.97034 | 37035 ft | 532 kts | 127° |
| 2026-04-25 16:09 | 27.23590 | 42.04175 | 37030 ft | 533 kts | 126° |
| 2026-04-25 16:09 | 27.19808 | 42.11315 | 37069 ft | 533 kts | 126° |
| 2026-04-25 16:10 | 27.16032 | 42.18432 | 37060 ft | 533 kts | 126° |
| 2026-04-25 16:10 | 27.12233 | 42.25584 | 37058 ft | 533 kts | 127° |
| 2026-04-25 16:11 | 27.08464 | 42.32666 | 37032 ft | 533 kts | 126° |
| 2026-04-25 16:11 | 27.04665 | 42.39794 | 37050 ft | 533 kts | 126° |
| 2026-04-25 16:12 | 27.00859 | 42.46923 | 37064 ft | 532 kts | 127° |
| 2026-04-25 16:12 | 26.97063 | 42.54023 | 37084 ft | 532 kts | 126° |
| 2026-04-25 16:13 | 26.93254 | 42.61136 | 37052 ft | 533 kts | 126° |
| 2026-04-25 16:13 | 26.89451 | 42.68226 | 37066 ft | 532 kts | 127° |
| 2026-04-25 16:14 | 26.85640 | 42.75319 | 37058 ft | 531 kts | 127° |
| 2026-04-25 16:14 | 26.81827 | 42.82406 | 37081 ft | 530 kts | 127° |
| 2026-04-25 16:15 | 26.78024 | 42.89461 | 37062 ft | 530 kts | 126° |
| 2026-04-25 16:15 | 26.74211 | 42.96525 | 37079 ft | 531 kts | 126° |
| 2026-04-25 16:16 | 26.70402 | 43.03568 | 37057 ft | 531 kts | 127° |
| 2026-04-25 16:16 | 26.66581 | 43.10624 | 37069 ft | 531 kts | 126° |
| 2026-04-25 16:17 | 26.62764 | 43.17660 | 37042 ft | 532 kts | 127° |
| 2026-04-25 16:17 | 26.58932 | 43.24715 | 37074 ft | 530 kts | 127° |
| 2026-04-25 16:18 | 26.55139 | 43.31686 | 37103 ft | 530 kts | 127° |
| 2026-04-25 16:18 | 26.51307 | 43.38717 | 37084 ft | 530 kts | 127° |
| 2026-04-25 16:19 | 26.47486 | 43.45718 | 37074 ft | 529 kts | 127° |
| 2026-04-25 16:19 | 26.43642 | 43.52748 | 37011 ft | 532 kts | 127° |
| 2026-04-25 16:20 | 26.37887 | 43.63254 | 37018 ft | 530 kts | 126° |
| 2026-04-25 16:21 | 26.32584 | 43.74093 | 37034 ft | 539 kts | 115° |
| 2026-04-25 16:21 | 26.30508 | 43.82147 | 37006 ft | 545 kts | 103° |
| 2026-04-25 16:22 | 26.29913 | 43.90542 | 37003 ft | 548 kts | 90° |
| 2026-04-25 16:22 | 26.29985 | 43.99004 | 37021 ft | 547 kts | 89° |
| 2026-04-25 16:23 | 26.30049 | 44.07449 | 37053 ft | 549 kts | 89° |
| 2026-04-25 16:23 | 26.30108 | 44.15945 | 37091 ft | 549 kts | 90° |
| 2026-04-25 16:24 | 26.30161 | 44.24435 | 37083 ft | 548 kts | 90° |
| 2026-04-25 16:24 | 26.30210 | 44.32893 | 37075 ft | 547 kts | 90° |
| 2026-04-25 16:25 | 26.30253 | 44.41314 | 37090 ft | 548 kts | 90° |
| 2026-04-25 16:25 | 26.30291 | 44.49803 | 37099 ft | 548 kts | 89° |
| 2026-04-25 16:26 | 26.30325 | 44.58270 | 37088 ft | 547 kts | 89° |
| 2026-04-25 16:26 | 26.30353 | 44.66711 | 37067 ft | 548 kts | 89° |
| 2026-04-25 16:27 | 26.30376 | 44.75148 | 37068 ft | 548 kts | 89° |
| 2026-04-25 16:27 | 26.30394 | 44.83659 | 37077 ft | 548 kts | 89° |
| 2026-04-25 16:28 | 26.30408 | 44.92066 | 37091 ft | 548 kts | 89° |
| 2026-04-25 16:28 | 26.30417 | 45.00546 | 37065 ft | 548 kts | 90° |
| 2026-04-25 16:29 | 26.30420 | 45.09008 | 37111 ft | 548 kts | 90° |
| 2026-04-25 16:29 | 26.30419 | 45.17515 | 37080 ft | 549 kts | 89° |
| 2026-04-25 16:30 | 26.30412 | 45.25972 | 37094 ft | 549 kts | 91° |
| 2026-04-25 16:30 | 26.30401 | 45.34475 | 37072 ft | 550 kts | 89° |
| 2026-04-25 16:31 | 26.30385 | 45.42942 | 37084 ft | 550 kts | 89° |
| 2026-04-25 16:31 | 26.30363 | 45.51485 | 37098 ft | 550 kts | 89° |
| 2026-04-25 16:32 | 26.30336 | 45.59989 | 37083 ft | 551 kts | 89° |
| 2026-04-25 16:32 | 26.30305 | 45.68498 | 37089 ft | 549 kts | 89° |
| 2026-04-25 16:33 | 26.30269 | 45.76952 | 37107 ft | 549 kts | 89° |
| 2026-04-25 16:33 | 26.30227 | 45.85492 | 37091 ft | 551 kts | 90° |
| 2026-04-25 16:34 | 26.30180 | 45.93985 | 37071 ft | 552 kts | 90° |
| 2026-04-25 16:34 | 26.30129 | 46.02499 | 37072 ft | 553 kts | 90° |
| 2026-04-25 16:35 | 26.30072 | 46.11046 | 37095 ft | 552 kts | 89° |
| 2026-04-25 16:35 | 26.30010 | 46.19552 | 37085 ft | 553 kts | 90° |
| 2026-04-25 16:36 | 26.29942 | 46.28095 | 37096 ft | 552 kts | 89° |
| 2026-04-25 16:36 | 26.29871 | 46.36602 | 37065 ft | 553 kts | 90° |
| 2026-04-25 16:37 | 26.29793 | 46.45150 | 37050 ft | 554 kts | 89° |
| 2026-04-25 16:37 | 26.29710 | 46.53721 | 37057 ft | 553 kts | 90° |
| 2026-04-25 16:38 | 26.29623 | 46.62244 | 37054 ft | 553 kts | 90° |
| 2026-04-25 16:38 | 26.29531 | 46.70809 | 37059 ft | 552 kts | 89° |
| 2026-04-25 16:39 | 26.29434 | 46.79292 | 37057 ft | 551 kts | 89° |
| 2026-04-25 16:39 | 26.29332 | 46.87823 | 37047 ft | 552 kts | 90° |
| 2026-04-25 16:40 | 26.29224 | 46.96353 | 37046 ft | 553 kts | 89° |
| 2026-04-25 16:40 | 26.29111 | 47.04908 | 37044 ft | 552 kts | 90° |
| 2026-04-25 16:41 | 26.28945 | 47.13439 | 37038 ft | 552 kts | 94° |
| 2026-04-25 16:41 | 26.26503 | 47.25874 | 37040 ft | 549 kts | 113° |
| 2026-04-25 16:42 | 26.23332 | 47.33539 | 37043 ft | 547 kts | 120° |
| 2026-04-25 16:42 | 26.20039 | 47.41129 | 37043 ft | 546 kts | 119° |
| 2026-04-25 16:43 | 26.16740 | 47.48721 | 37040 ft | 546 kts | 119° |
| 2026-04-25 16:43 | 26.13441 | 47.56299 | 37028 ft | 546 kts | 118° |
| 2026-04-25 16:44 | 26.10138 | 47.63873 | 37017 ft | 547 kts | 118° |
| 2026-04-25 16:44 | 26.06818 | 47.71473 | 37009 ft | 545 kts | 118° |
| 2026-04-25 16:45 | 26.03524 | 47.79003 | 37016 ft | 544 kts | 118° |
| 2026-04-25 16:45 | 26.00207 | 47.86570 | 37021 ft | 544 kts | 119° |
| 2026-04-25 16:46 | 25.96905 | 47.94091 | 37021 ft | 543 kts | 118° |
| 2026-04-25 16:46 | 25.94140 | 48.00380 | 37017 ft | 543 kts | 118° |
| 2026-04-25 16:47 | 25.90272 | 48.09158 | 37025 ft | 544 kts | 119° |
| 2026-04-25 16:47 | 25.86950 | 48.16683 | 36996 ft | 544 kts | 119° |
| 2026-04-25 16:48 | 25.83629 | 48.24194 | 36998 ft | 543 kts | 118° |
| 2026-04-25 16:48 | 25.80304 | 48.31704 | 37014 ft | 542 kts | 118° |
| 2026-04-25 16:49 | 25.76992 | 48.39170 | 37017 ft | 542 kts | 118° |
| 2026-04-25 16:49 | 25.73667 | 48.46653 | 37012 ft | 541 kts | 118° |
| 2026-04-25 16:50 | 25.70346 | 48.54113 | 37002 ft | 542 kts | 118° |
| 2026-04-25 16:50 | 25.67013 | 48.61588 | 37016 ft | 541 kts | 118° |
| 2026-04-25 16:51 | 25.63675 | 48.69061 | 37009 ft | 540 kts | 118° |
| 2026-04-25 16:51 | 25.60919 | 48.75222 | 37023 ft | 539 kts | 118° |
| 2026-04-25 16:52 | 25.57023 | 48.83917 | 36990 ft | 540 kts | 118° |
| 2026-04-25 16:52 | 25.53692 | 48.91335 | 36998 ft | 540 kts | 118° |
| 2026-04-25 16:53 | 25.48689 | 49.02455 | 36977 ft | 541 kts | 119° |
| 2026-04-25 16:54 | 25.45345 | 49.09873 | 37008 ft | 540 kts | 119° |
| 2026-04-25 16:54 | 25.41999 | 49.17285 | 36953 ft | 539 kts | 118° |
| 2026-04-25 16:55 | 25.38662 | 49.24661 | 36967 ft | 537 kts | 118° |
| 2026-04-25 16:55 | 25.35330 | 49.32017 | 36945 ft | 537 kts | 119° |
| 2026-04-25 16:56 | 25.31980 | 49.39400 | 36934 ft | 536 kts | 118° |
| 2026-04-25 16:56 | 25.29239 | 49.46999 | 36941 ft | 537 kts | 106° |
| 2026-04-25 16:57 | 25.27943 | 49.55093 | 36940 ft | 536 kts | 92° |
| 2026-04-25 16:57 | 25.27803 | 49.63257 | 36944 ft | 535 kts | 88° |
| 2026-04-25 16:58 | 25.27735 | 49.71466 | 36942 ft | 535 kts | 88° |
| 2026-04-25 16:58 | 25.27663 | 49.79644 | 36961 ft | 535 kts | 88° |
| 2026-04-25 16:59 | 25.27588 | 49.87864 | 36967 ft | 534 kts | 89° |
| 2026-04-25 16:59 | 25.27509 | 49.96013 | 36970 ft | 534 kts | 89° |
| 2026-04-25 17:00 | 25.27426 | 50.04210 | 36965 ft | 534 kts | 88° |
| 2026-04-25 17:00 | 25.27338 | 50.12390 | 36962 ft | 534 kts | 89° |
| 2026-04-25 17:01 | 25.27246 | 50.20542 | 36962 ft | 534 kts | 88° |
| 2026-04-25 17:01 | 25.27150 | 50.28721 | 36959 ft | 534 kts | 88° |
| 2026-04-25 17:02 | 25.27048 | 50.36933 | 36948 ft | 533 kts | 88° |
| 2026-04-25 17:02 | 25.26943 | 50.45054 | 36945 ft | 533 kts | 88° |
| 2026-04-25 17:03 | 25.26833 | 50.53251 | 36933 ft | 532 kts | 89° |
| 2026-04-25 17:03 | 25.26720 | 50.61347 | 36940 ft | 532 kts | 89° |
| 2026-04-25 17:04 | 25.26601 | 50.69510 | 36935 ft | 531 kts | 89° |
| 2026-04-25 17:04 | 25.26479 | 50.77655 | 36936 ft | 531 kts | 89° |
| 2026-04-25 17:05 | 25.26352 | 50.85781 | 36930 ft | 532 kts | 89° |
| 2026-04-25 17:05 | 25.26154 | 50.97979 | 36938 ft | 531 kts | 89° |
| 2026-04-25 17:06 | 25.26016 | 51.06079 | 36914 ft | 531 kts | 89° |
| 2026-04-25 17:06 | 25.25874 | 51.14220 | 36931 ft | 530 kts | 89° |
| 2026-04-25 17:07 | 25.25728 | 51.22316 | 36905 ft | 530 kts | 89° |
| 2026-04-25 17:07 | 25.25577 | 51.30408 | 36925 ft | 529 kts | 89° |
| 2026-04-25 17:08 | 25.25421 | 51.38545 | 36928 ft | 529 kts | 89° |
| 2026-04-25 17:08 | 25.25262 | 51.46652 | 36923 ft | 529 kts | 89° |
| 2026-04-25 17:09 | 25.25099 | 51.54718 | 36910 ft | 529 kts | 89° |
| 2026-04-25 17:09 | 25.25536 | 51.62780 | 36921 ft | 522 kts | 75° |
| 2026-04-25 17:10 | 25.27250 | 51.70490 | 36919 ft | 519 kts | 71° |
| 2026-04-25 17:10 | 25.29079 | 51.78205 | 36916 ft | 519 kts | 71° |
| 2026-04-25 17:11 | 25.30900 | 51.85902 | 36902 ft | 519 kts | 70° |
| 2026-04-25 17:11 | 25.32713 | 51.93580 | 36914 ft | 519 kts | 71° |
| 2026-04-25 17:12 | 25.34518 | 52.01248 | 36909 ft | 518 kts | 71° |
| 2026-04-25 17:12 | 25.36326 | 52.08941 | 36914 ft | 517 kts | 71° |
| 2026-04-25 17:13 | 25.37829 | 52.15353 | 36895 ft | 516 kts | 70° |
| 2026-04-25 17:13 | 25.39912 | 52.24262 | 36923 ft | 517 kts | 71° |
| 2026-04-25 17:14 | 25.41717 | 52.32000 | 36915 ft | 518 kts | 70° |
| 2026-04-25 17:14 | 25.43505 | 52.39686 | 36897 ft | 518 kts | 71° |
| 2026-04-25 17:15 | 25.45277 | 52.47320 | 36899 ft | 517 kts | 71° |
| 2026-04-25 17:15 | 25.47060 | 52.55022 | 36900 ft | 517 kts | 71° |
| 2026-04-25 17:16 | 25.48831 | 52.62690 | 36897 ft | 517 kts | 71° |
| 2026-04-25 17:16 | 25.50610 | 52.70416 | 36916 ft | 516 kts | 71° |
| 2026-04-25 17:17 | 25.52368 | 52.78067 | 36911 ft | 516 kts | 71° |
| 2026-04-25 17:17 | 25.54134 | 52.85774 | 36902 ft | 517 kts | 72° |
| 2026-04-25 17:18 | 25.55900 | 52.93503 | 36891 ft | 518 kts | 71° |
| 2026-04-25 17:18 | 25.57656 | 53.01206 | 36888 ft | 518 kts | 71° |
| 2026-04-25 17:19 | 25.59408 | 53.08912 | 36903 ft | 516 kts | 71° |
| 2026-04-25 17:19 | 25.61146 | 53.16576 | 36902 ft | 517 kts | 71° |
| 2026-04-25 17:20 | 25.62892 | 53.24296 | 36892 ft | 517 kts | 72° |
| 2026-04-25 17:20 | 25.64472 | 53.32036 | 36759 ft | 513 kts | 73° |
| 2026-04-25 17:21 | 25.65229 | 53.35838 | 36462 ft | 513 kts | 74° |
| 2026-04-25 17:21 | 25.66003 | 53.39723 | 36083 ft | 514 kts | 74° |
| 2026-04-25 17:21 | 25.66761 | 53.43531 | 35708 ft | 515 kts | 74° |
| 2026-04-25 17:21 | 25.67531 | 53.47407 | 35365 ft | 515 kts | 75° |
| 2026-04-25 17:22 | 25.68304 | 53.51294 | 34969 ft | 517 kts | 76° |
| 2026-04-25 17:22 | 25.68815 | 53.53871 | 34694 ft | 518 kts | 76° |
| 2026-04-25 17:22 | 25.69841 | 53.59046 | 34212 ft | 518 kts | 76° |
| 2026-04-25 17:22 | 25.70615 | 53.62958 | 33804 ft | 520 kts | 76° |
| 2026-04-25 17:23 | 25.71386 | 53.66860 | 33360 ft | 522 kts | 77° |
| 2026-04-25 17:23 | 25.72164 | 53.70793 | 32642 ft | 521 kts | 77° |
| 2026-04-25 17:23 | 25.72925 | 53.74652 | 32036 ft | 514 kts | 78° |
| 2026-04-25 17:23 | 25.73690 | 53.78534 | 31309 ft | 510 kts | 78° |
| 2026-04-25 17:24 | 25.74438 | 53.82338 | 30664 ft | 504 kts | 78° |
| 2026-04-25 17:24 | 25.75174 | 53.86086 | 29995 ft | 499 kts | 78° |
| 2026-04-25 17:24 | 25.75907 | 53.89819 | 29335 ft | 494 kts | 79° |
| 2026-04-25 17:24 | 25.76579 | 53.93541 | 28684 ft | 488 kts | 83° |
| 2026-04-25 17:25 | 25.76577 | 53.97196 | 28032 ft | 478 kts | 100° |
| 2026-04-25 17:25 | 25.75996 | 54.00776 | 27383 ft | 471 kts | 104° |
| 2026-04-25 17:25 | 25.75392 | 54.04318 | 26762 ft | 467 kts | 103° |
| 2026-04-25 17:25 | 25.74798 | 54.07829 | 26154 ft | 462 kts | 103° |
| 2026-04-25 17:26 | 25.74209 | 54.11295 | 25533 ft | 457 kts | 103° |
| 2026-04-25 17:26 | 25.73628 | 54.14712 | 24917 ft | 452 kts | 103° |
| 2026-04-25 17:26 | 25.73046 | 54.18134 | 24296 ft | 447 kts | 103° |
| 2026-04-25 17:26 | 25.72477 | 54.21481 | 23688 ft | 443 kts | 103° |
| 2026-04-25 17:27 | 25.71913 | 54.24805 | 23086 ft | 439 kts | 102° |
| 2026-04-25 17:27 | 25.71346 | 54.28119 | 22496 ft | 434 kts | 103° |
| 2026-04-25 17:27 | 25.70788 | 54.31374 | 21928 ft | 430 kts | 103° |
| 2026-04-25 17:27 | 25.70417 | 54.33538 | 21549 ft | 426 kts | 103° |
| 2026-04-25 17:28 | 25.69691 | 54.37767 | 20801 ft | 419 kts | 103° |
| 2026-04-25 17:28 | 25.69152 | 54.40902 | 20248 ft | 414 kts | 103° |
| 2026-04-25 17:28 | 25.68613 | 54.44032 | 19690 ft | 409 kts | 103° |
| 2026-04-25 17:28 | 25.68086 | 54.47091 | 19134 ft | 403 kts | 103° |
| 2026-04-25 17:29 | 25.67563 | 54.50122 | 18587 ft | 398 kts | 103° |
| 2026-04-25 17:29 | 25.67049 | 54.53101 | 18038 ft | 393 kts | 103° |
| 2026-04-25 17:29 | 25.66545 | 54.56013 | 17501 ft | 388 kts | 103° |
| 2026-04-25 17:29 | 25.66039 | 54.58936 | 16951 ft | 383 kts | 103° |
| 2026-04-25 17:30 | 25.65540 | 54.61813 | 16403 ft | 379 kts | 103° |
| 2026-04-25 17:30 | 25.65050 | 54.64637 | 15867 ft | 374 kts | 103° |
| 2026-04-25 17:30 | 25.64560 | 54.67455 | 15329 ft | 370 kts | 103° |
| 2026-04-25 17:30 | 25.64078 | 54.70226 | 14792 ft | 366 kts | 103° |
| 2026-04-25 17:31 | 25.63596 | 54.72993 | 14289 ft | 361 kts | 103° |
| 2026-04-25 17:31 | 25.63126 | 54.75689 | 13808 ft | 356 kts | 103° |
| 2026-04-25 17:31 | 25.62659 | 54.78361 | 13335 ft | 355 kts | 103° |
| 2026-04-25 17:31 | 25.62195 | 54.81013 | 12871 ft | 353 kts | 103° |
| 2026-04-25 17:32 | 25.61727 | 54.83684 | 12403 ft | 350 kts | 103° |
| 2026-04-25 17:32 | 25.61229 | 54.86315 | 11937 ft | 348 kts | 108° |
| 2026-04-25 17:32 | 25.60361 | 54.88763 | 11637 ft | 341 kts | 115° |
| 2026-04-25 17:32 | 25.59407 | 54.91185 | 11612 ft | 345 kts | 115° |
| 2026-04-25 17:33 | 25.58449 | 54.93636 | 11412 ft | 347 kts | 115° |
| 2026-04-25 17:33 | 25.57507 | 54.96048 | 11250 ft | 345 kts | 115° |
| 2026-04-25 17:33 | 25.56553 | 54.98490 | 11062 ft | 345 kts | 115° |
| 2026-04-25 17:33 | 25.55601 | 55.00927 | 10923 ft | 344 kts | 115° |
| 2026-04-25 17:34 | 25.54627 | 55.03340 | 10721 ft | 344 kts | 118° |
| 2026-04-25 17:34 | 25.53459 | 55.05662 | 10555 ft | 342 kts | 122° |
| 2026-04-25 17:34 | 25.52290 | 55.07912 | 10389 ft | 338 kts | 121° |
| 2026-04-25 17:34 | 25.51143 | 55.10129 | 10210 ft | 321 kts | 121° |
| 2026-04-25 17:35 | 25.50061 | 55.12219 | 9838 ft | 308 kts | 121° |
| 2026-04-25 17:35 | 25.48999 | 55.14264 | 9276 ft | 304 kts | 121° |
| 2026-04-25 17:35 | 25.47955 | 55.16275 | 8579 ft | 303 kts | 121° |
| 2026-04-25 17:35 | 25.46909 | 55.18288 | 8218 ft | 301 kts | 120° |
| 2026-04-25 17:36 | 25.45824 | 55.20205 | 7980 ft | 294 kts | 129° |
| 2026-04-25 17:36 | 25.44454 | 55.21922 | 7973 ft | 297 kts | 133° |
| 2026-04-25 17:36 | 25.43063 | 55.23621 | 7985 ft | 297 kts | 133° |
| 2026-04-25 17:36 | 25.41685 | 55.25312 | 7991 ft | 297 kts | 133° |
| 2026-04-25 17:37 | 25.40287 | 55.27026 | 7990 ft | 297 kts | 133° |
| 2026-04-25 17:37 | 25.38913 | 55.28711 | 7988 ft | 297 kts | 133° |
| 2026-04-25 17:37 | 25.37525 | 55.30413 | 7985 ft | 297 kts | 133° |
| 2026-04-25 17:37 | 25.36121 | 55.32109 | 7983 ft | 297 kts | 137° |
| 2026-04-25 17:38 | 25.34448 | 55.33401 | 7982 ft | 295 kts | 153° |
| 2026-04-25 17:38 | 25.33227 | 55.34111 | 7979 ft | 294 kts | 154° |
| 2026-04-25 17:38 | 25.30813 | 55.35523 | 7982 ft | 294 kts | 153° |
| 2026-04-25 17:38 | 25.29004 | 55.36585 | 7981 ft | 295 kts | 154° |
| 2026-04-25 17:39 | 25.27191 | 55.37647 | 7982 ft | 295 kts | 153° |
| 2026-04-25 17:39 | 25.25375 | 55.38712 | 7981 ft | 295 kts | 153° |
| 2026-04-25 17:39 | 25.23549 | 55.39782 | 7982 ft | 294 kts | 153° |
| 2026-04-25 17:39 | 25.21738 | 55.40842 | 7982 ft | 294 kts | 153° |
| 2026-04-25 17:40 | 25.19951 | 55.41889 | 7902 ft | 285 kts | 153° |
| 2026-04-25 17:40 | 25.18209 | 55.42909 | 7400 ft | 289 kts | 153° |
| 2026-04-25 17:40 | 25.16424 | 55.43951 | 6921 ft | 290 kts | 153° |
| 2026-04-25 17:40 | 25.14646 | 55.44992 | 6720 ft | 284 kts | 153° |
| 2026-04-25 17:41 | 25.12875 | 55.46027 | 6613 ft | 290 kts | 153° |
| 2026-04-25 17:41 | 25.11200 | 55.47265 | 6455 ft | 293 kts | 135° |
| 2026-04-25 17:41 | 25.10007 | 55.49071 | 6316 ft | 292 kts | 120° |
| 2026-04-25 17:41 | 25.08951 | 55.50993 | 6175 ft | 293 kts | 120° |
| 2026-04-25 17:42 | 25.07882 | 55.52917 | 6042 ft | 295 kts | 120° |
| 2026-04-25 17:42 | 25.06912 | 55.54879 | 5903 ft | 292 kts | 107° |
| 2026-04-25 17:42 | 25.06703 | 55.57067 | 5693 ft | 285 kts | 77° |
| 2026-04-25 17:42 | 25.07476 | 55.59015 | 5477 ft | 276 kts | 47° |
| 2026-04-25 17:43 | 25.08964 | 55.60278 | 5262 ft | 267 kts | 17° |
| 2026-04-25 17:43 | 25.10750 | 55.60497 | 5047 ft | 259 kts | 347° |
| 2026-04-25 17:43 | 25.12281 | 55.59612 | 4809 ft | 244 kts | 311° |
| 2026-04-25 17:43 | 25.13097 | 55.58046 | 4627 ft | 232 kts | 295° |
| 2026-04-25 17:44 | 25.13978 | 55.56587 | 4762 ft | 226 kts | 309° |
| 2026-04-25 17:44 | 25.14825 | 55.55190 | 4880 ft | 213 kts | 301° |
| 2026-04-25 17:44 | 25.15610 | 55.53818 | 4953 ft | 208 kts | 303° |
| 2026-04-25 17:44 | 25.16343 | 55.52517 | 4977 ft | 188 kts | 302° |
| 2026-04-25 17:45 | 25.17013 | 55.51318 | 4467 ft | 186 kts | 303° |
| 2026-04-25 17:45 | 25.17467 | 55.50507 | 3938 ft | 189 kts | 303° |
| 2026-04-25 17:45 | 25.18379 | 55.48869 | 2978 ft | 188 kts | 302° |
| 2026-04-25 17:45 | 25.19047 | 55.47669 | 2355 ft | 183 kts | 302° |
| 2026-04-25 17:46 | 25.19677 | 55.46533 | 2071 ft | 164 kts | 302° |
| 2026-04-25 17:46 | 25.20268 | 55.45470 | 1694 ft | 174 kts | 301° |
| 2026-04-25 17:46 | 25.20921 | 55.44265 | 1585 ft | 185 kts | 301° |
| 2026-04-25 17:46 | 25.21548 | 55.43086 | 1262 ft | 168 kts | 302° |
| 2026-04-25 17:47 | 25.22102 | 55.42099 | 966 ft | 143 kts | 302° |
| 2026-04-25 17:47 | 25.22631 | 55.41188 | 545 ft | 146 kts | 302° |
| 2026-04-25 17:47 | 25.23200 | 55.40184 | 270 ft | 159 kts | 302° |
| 2026-04-25 17:47 | 25.23749 | 55.39204 | 66 ft | 137 kts | 301° |
| 2026-04-25 17:48 | 25.24339 | 55.38144 | 41 ft | 28 kts | 302° |
| 2026-04-25 17:48 | 25.24462 | 55.37919 | 39 ft | 35 kts | 301° |
| 2026-04-25 17:48 | 25.24612 | 55.37648 | 35 ft | 49 kts | 301° |
| 2026-04-25 17:49 | 25.24759 | 55.37352 | 31 ft | 38 kts | 288° |
| 2026-04-25 17:49 | 25.24785 | 55.37155 | 29 ft | 0 kts | 270° |
| 2026-04-25 17:49 | 25.24786 | 55.37097 | 30 ft | 0 kts | 271° |
| 2026-04-25 17:50 | 25.24786 | 55.37077 | 30 ft | 7 kts | 271° |